sensor_id;sensor_type;location;lat;lon;timestamp;temperature;humidity
14585;DHT22;7379;51.506;11.876;2022-08-19T00:01:18;23.20;67.20
14585;DHT22;7379;51.506;11.876;2022-08-19T00:03:45;23.20;67.20
14585;DHT22;7379;51.506;11.876;2022-08-19T00:06:13;23.20;67.30
14585;DHT22;7379;51.506;11.876;2022-08-19T00:08:40;23.10;67.20
14585;DHT22;7379;51.506;11.876;2022-08-19T00:11:08;23.10;67.40
14585;DHT22;7379;51.506;11.876;2022-08-19T00:13:35;23.10;67.40
14585;DHT22;7379;51.506;11.876;2022-08-19T00:16:03;23.10;67.40
14585;DHT22;7379;51.506;11.876;2022-08-19T00:18:31;23.10;67.50
14585;DHT22;7379;51.506;11.876;2022-08-19T00:20:59;23.10;67.60
14585;DHT22;7379;51.506;11.876;2022-08-19T00:23:26;23.10;67.60
14585;DHT22;7379;51.506;11.876;2022-08-19T00:25:53;23.00;67.60
14585;DHT22;7379;51.506;11.876;2022-08-19T00:28:21;23.00;68.50
14585;DHT22;7379;51.506;11.876;2022-08-19T00:30:48;23.10;67.80
14585;DHT22;7379;51.506;11.876;2022-08-19T00:33:17;23.00;67.80
14585;DHT22;7379;51.506;11.876;2022-08-19T00:35:43;23.00;67.70
14585;DHT22;7379;51.506;11.876;2022-08-19T00:38:10;23.00;67.80
14585;DHT22;7379;51.506;11.876;2022-08-19T00:40:37;23.00;67.80
14585;DHT22;7379;51.506;11.876;2022-08-19T00:43:09;23.00;67.90
14585;DHT22;7379;51.506;11.876;2022-08-19T00:45:37;23.00;68.00
14585;DHT22;7379;51.506;11.876;2022-08-19T00:48:06;23.00;67.90
14585;DHT22;7379;51.506;11.876;2022-08-19T00:50:34;23.00;68.10
14585;DHT22;7379;51.506;11.876;2022-08-19T00:53:02;23.00;68.00
14585;DHT22;7379;51.506;11.876;2022-08-19T00:55:31;23.00;67.90
14585;DHT22;7379;51.506;11.876;2022-08-19T00:58:02;22.90;67.90
14585;DHT22;7379;51.506;11.876;2022-08-19T01:00:32;22.90;67.80
14585;DHT22;7379;51.506;11.876;2022-08-19T01:03:05;22.90;67.80
14585;DHT22;7379;51.506;11.876;2022-08-19T01:05:32;22.90;67.80
14585;DHT22;7379;51.506;11.876;2022-08-19T01:08:02;22.90;67.90
14585;DHT22;7379;51.506;11.876;2022-08-19T01:10:33;22.90;67.90
14585;DHT22;7379;51.506;11.876;2022-08-19T01:13:03;22.90;67.90
14585;DHT22;7379;51.506;11.876;2022-08-19T01:15:33;22.90;67.90
14585;DHT22;7379;51.506;11.876;2022-08-19T01:18:08;22.90;68.00
14585;DHT22;7379;51.506;11.876;2022-08-19T01:20:36;22.90;67.90
14585;DHT22;7379;51.506;11.876;2022-08-19T01:23:04;22.90;67.90
14585;DHT22;7379;51.506;11.876;2022-08-19T01:25:33;22.90;68.00
14585;DHT22;7379;51.506;11.876;2022-08-19T01:28:02;22.80;67.90
14585;DHT22;7379;51.506;11.876;2022-08-19T01:30:32;22.80;67.90
14585;DHT22;7379;51.506;11.876;2022-08-19T01:33:00;22.80;67.90
14585;DHT22;7379;51.506;11.876;2022-08-19T01:35:30;22.80;68.00
14585;DHT22;7379;51.506;11.876;2022-08-19T01:38:00;22.80;68.00
14585;DHT22;7379;51.506;11.876;2022-08-19T01:40:31;22.80;68.00
14585;DHT22;7379;51.506;11.876;2022-08-19T01:42:58;22.80;68.10
14585;DHT22;7379;51.506;11.876;2022-08-19T01:45:27;22.80;68.10
14585;DHT22;7379;51.506;11.876;2022-08-19T01:47:55;22.80;68.20
14585;DHT22;7379;51.506;11.876;2022-08-19T01:50:22;22.80;68.20
14585;DHT22;7379;51.506;11.876;2022-08-19T01:52:48;22.80;68.20
14585;DHT22;7379;51.506;11.876;2022-08-19T01:55:18;22.80;68.30
14585;DHT22;7379;51.506;11.876;2022-08-19T01:57:51;22.70;68.20
14585;DHT22;7379;51.506;11.876;2022-08-19T02:00:20;22.70;68.40
14585;DHT22;7379;51.506;11.876;2022-08-19T02:02:47;22.80;68.60
14585;DHT22;7379;51.506;11.876;2022-08-19T02:05:15;22.70;68.50
14585;DHT22;7379;51.506;11.876;2022-08-19T02:07:45;22.70;68.60
14585;DHT22;7379;51.506;11.876;2022-08-19T02:10:15;22.70;68.70
14585;DHT22;7379;51.506;11.876;2022-08-19T02:12:42;22.70;68.80
14585;DHT22;7379;51.506;11.876;2022-08-19T02:15:11;22.70;68.90
14585;DHT22;7379;51.506;11.876;2022-08-19T02:17:39;22.70;68.80
14585;DHT22;7379;51.506;11.876;2022-08-19T02:20:07;22.60;68.70
14585;DHT22;7379;51.506;11.876;2022-08-19T02:22:34;22.60;68.70
14585;DHT22;7379;51.506;11.876;2022-08-19T02:25:01;22.60;68.80
14585;DHT22;7379;51.506;11.876;2022-08-19T02:27:29;22.60;68.80
14585;DHT22;7379;51.506;11.876;2022-08-19T02:29:56;22.60;68.80
14585;DHT22;7379;51.506;11.876;2022-08-19T02:32:24;22.60;68.90
14585;DHT22;7379;51.506;11.876;2022-08-19T02:34:51;22.60;69.00
14585;DHT22;7379;51.506;11.876;2022-08-19T02:37:18;22.60;69.00
14585;DHT22;7379;51.506;11.876;2022-08-19T02:40:03;22.60;69.10
14585;DHT22;7379;51.506;11.876;2022-08-19T02:42:30;22.60;69.20
14585;DHT22;7379;51.506;11.876;2022-08-19T02:44:57;22.60;69.20
14585;DHT22;7379;51.506;11.876;2022-08-19T02:47:25;22.60;69.20
14585;DHT22;7379;51.506;11.876;2022-08-19T02:49:52;22.60;69.20
14585;DHT22;7379;51.506;11.876;2022-08-19T02:52:19;22.50;69.20
14585;DHT22;7379;51.506;11.876;2022-08-19T02:54:48;22.60;69.30
14585;DHT22;7379;51.506;11.876;2022-08-19T02:57:15;22.50;69.30
14585;DHT22;7379;51.506;11.876;2022-08-19T02:59:42;22.60;69.50
14585;DHT22;7379;51.506;11.876;2022-08-19T03:02:08;22.50;69.40
14585;DHT22;7379;51.506;11.876;2022-08-19T03:04:37;22.50;70.10
14585;DHT22;7379;51.506;11.876;2022-08-19T03:07:03;22.50;69.40
14585;DHT22;7379;51.506;11.876;2022-08-19T03:09:30;22.50;69.60
14585;DHT22;7379;51.506;11.876;2022-08-19T03:11:57;22.50;69.60
14585;DHT22;7379;51.506;11.876;2022-08-19T03:14:24;22.50;69.70
14585;DHT22;7379;51.506;11.876;2022-08-19T03:16:52;22.50;69.60
14585;DHT22;7379;51.506;11.876;2022-08-19T03:19:20;22.50;69.70
14585;DHT22;7379;51.506;11.876;2022-08-19T03:21:49;22.50;69.70
14585;DHT22;7379;51.506;11.876;2022-08-19T03:24:17;22.50;69.90
14585;DHT22;7379;51.506;11.876;2022-08-19T03:26:47;22.50;69.80
14585;DHT22;7379;51.506;11.876;2022-08-19T03:29:14;22.40;69.70
14585;DHT22;7379;51.506;11.876;2022-08-19T03:31:43;22.50;69.90
14585;DHT22;7379;51.506;11.876;2022-08-19T03:34:11;22.40;69.70
14585;DHT22;7379;51.506;11.876;2022-08-19T03:36:38;22.40;69.80
14585;DHT22;7379;51.506;11.876;2022-08-19T03:39:06;22.40;69.90
14585;DHT22;7379;51.506;11.876;2022-08-19T03:41:37;22.40;69.90
14585;DHT22;7379;51.506;11.876;2022-08-19T03:44:04;22.40;70.00
14585;DHT22;7379;51.506;11.876;2022-08-19T03:46:34;22.40;70.10
14585;DHT22;7379;51.506;11.876;2022-08-19T03:49:03;22.40;70.10
14585;DHT22;7379;51.506;11.876;2022-08-19T03:51:34;22.40;70.00
14585;DHT22;7379;51.506;11.876;2022-08-19T03:54:04;22.40;70.00
14585;DHT22;7379;51.506;11.876;2022-08-19T03:56:33;22.40;70.10
14585;DHT22;7379;51.506;11.876;2022-08-19T03:59:00;22.40;70.20
14585;DHT22;7379;51.506;11.876;2022-08-19T04:01:28;22.40;70.20
14585;DHT22;7379;51.506;11.876;2022-08-19T04:03:56;22.40;70.30
14585;DHT22;7379;51.506;11.876;2022-08-19T04:06:25;22.40;70.20
14585;DHT22;7379;51.506;11.876;2022-08-19T04:08:53;22.40;70.10
14585;DHT22;7379;51.506;11.876;2022-08-19T04:11:23;22.30;70.00
14585;DHT22;7379;51.506;11.876;2022-08-19T04:13:53;22.30;69.90
14585;DHT22;7379;51.506;11.876;2022-08-19T04:16:22;22.40;70.00
14585;DHT22;7379;51.506;11.876;2022-08-19T04:18:49;22.40;70.10
14585;DHT22;7379;51.506;11.876;2022-08-19T04:21:19;22.30;70.00
14585;DHT22;7379;51.506;11.876;2022-08-19T04:23:46;22.30;70.10
14585;DHT22;7379;51.506;11.876;2022-08-19T04:26:13;22.30;70.00
14585;DHT22;7379;51.506;11.876;2022-08-19T04:28:41;22.30;70.00
14585;DHT22;7379;51.506;11.876;2022-08-19T04:31:13;22.30;70.10
14585;DHT22;7379;51.506;11.876;2022-08-19T04:33:40;22.30;70.30
14585;DHT22;7379;51.506;11.876;2022-08-19T04:36:07;22.30;70.20
14585;DHT22;7379;51.506;11.876;2022-08-19T04:38:35;22.30;70.30
14585;DHT22;7379;51.506;11.876;2022-08-19T04:41:03;22.30;70.60
14585;DHT22;7379;51.506;11.876;2022-08-19T04:43:47;22.30;70.60
14585;DHT22;7379;51.506;11.876;2022-08-19T04:46:17;22.30;70.60
14585;DHT22;7379;51.506;11.876;2022-08-19T04:48:45;22.20;70.60
14585;DHT22;7379;51.506;11.876;2022-08-19T04:51:13;22.20;70.70
14585;DHT22;7379;51.506;11.876;2022-08-19T04:53:41;22.20;70.60
14585;DHT22;7379;51.506;11.876;2022-08-19T04:56:10;22.20;70.70
14585;DHT22;7379;51.506;11.876;2022-08-19T04:58:38;22.20;70.70
14585;DHT22;7379;51.506;11.876;2022-08-19T05:01:07;22.20;70.80
14585;DHT22;7379;51.506;11.876;2022-08-19T05:03:36;22.20;70.80
14585;DHT22;7379;51.506;11.876;2022-08-19T05:06:05;22.20;70.90
14585;DHT22;7379;51.506;11.876;2022-08-19T05:08:34;22.20;70.90
14585;DHT22;7379;51.506;11.876;2022-08-19T05:11:00;22.20;71.00
14585;DHT22;7379;51.506;11.876;2022-08-19T05:13:28;22.20;71.00
14585;DHT22;7379;51.506;11.876;2022-08-19T05:15:56;22.20;71.00
14585;DHT22;7379;51.506;11.876;2022-08-19T05:18:23;22.20;70.90
14585;DHT22;7379;51.506;11.876;2022-08-19T05:21:09;22.20;71.00
14585;DHT22;7379;51.506;11.876;2022-08-19T05:23:54;22.20;71.00
14585;DHT22;7379;51.506;11.876;2022-08-19T05:26:21;22.20;71.10
14585;DHT22;7379;51.506;11.876;2022-08-19T05:28:48;22.20;71.10
14585;DHT22;7379;51.506;11.876;2022-08-19T05:31:15;22.20;71.10
14585;DHT22;7379;51.506;11.876;2022-08-19T05:33:41;22.10;71.00
14585;DHT22;7379;51.506;11.876;2022-08-19T05:36:09;22.20;71.10
14585;DHT22;7379;51.506;11.876;2022-08-19T05:38:36;22.10;71.10
14585;DHT22;7379;51.506;11.876;2022-08-19T05:41:07;22.10;71.00
14585;DHT22;7379;51.506;11.876;2022-08-19T05:43:34;22.10;71.00
14585;DHT22;7379;51.506;11.876;2022-08-19T05:46:00;22.10;70.90
14585;DHT22;7379;51.506;11.876;2022-08-19T05:48:27;22.10;71.00
14585;DHT22;7379;51.506;11.876;2022-08-19T05:50:55;22.10;71.10
14585;DHT22;7379;51.506;11.876;2022-08-19T05:53:23;22.10;71.10
14585;DHT22;7379;51.506;11.876;2022-08-19T05:55:50;22.10;71.10
14585;DHT22;7379;51.506;11.876;2022-08-19T05:58:17;22.10;71.20
14585;DHT22;7379;51.506;11.876;2022-08-19T06:00:44;22.10;71.20
14585;DHT22;7379;51.506;11.876;2022-08-19T06:03:11;22.10;71.20
14585;DHT22;7379;51.506;11.876;2022-08-19T06:05:37;22.10;71.20
14585;DHT22;7379;51.506;11.876;2022-08-19T06:08:04;22.10;71.20
14585;DHT22;7379;51.506;11.876;2022-08-19T06:10:34;22.10;71.20
14585;DHT22;7379;51.506;11.876;2022-08-19T06:13:02;22.10;71.20
14585;DHT22;7379;51.506;11.876;2022-08-19T06:15:29;22.10;71.20
14585;DHT22;7379;51.506;11.876;2022-08-19T06:17:56;22.10;71.10
14585;DHT22;7379;51.506;11.876;2022-08-19T06:20:23;22.10;71.20
14585;DHT22;7379;51.506;11.876;2022-08-19T06:22:50;22.10;71.20
14585;DHT22;7379;51.506;11.876;2022-08-19T06:25:17;22.10;71.10
14585;DHT22;7379;51.506;11.876;2022-08-19T06:27:46;22.10;71.10
14585;DHT22;7379;51.506;11.876;2022-08-19T06:30:13;22.10;71.10
14585;DHT22;7379;51.506;11.876;2022-08-19T06:32:40;22.10;71.10
14585;DHT22;7379;51.506;11.876;2022-08-19T06:35:07;22.10;71.80
14585;DHT22;7379;51.506;11.876;2022-08-19T06:37:34;22.10;71.00
14585;DHT22;7379;51.506;11.876;2022-08-19T06:40:03;22.10;71.00
14585;DHT22;7379;51.506;11.876;2022-08-19T06:42:31;22.00;71.00
14585;DHT22;7379;51.506;11.876;2022-08-19T06:44:59;22.00;70.90
14585;DHT22;7379;51.506;11.876;2022-08-19T06:47:29;22.00;71.00
14585;DHT22;7379;51.506;11.876;2022-08-19T06:49:56;22.10;71.00
14585;DHT22;7379;51.506;11.876;2022-08-19T06:52:28;22.10;71.00
14585;DHT22;7379;51.506;11.876;2022-08-19T06:54:55;22.10;71.10
14585;DHT22;7379;51.506;11.876;2022-08-19T06:57:23;22.10;71.10
14585;DHT22;7379;51.506;11.876;2022-08-19T06:59:50;22.00;71.00
14585;DHT22;7379;51.506;11.876;2022-08-19T07:02:19;22.00;71.00
14585;DHT22;7379;51.506;11.876;2022-08-19T07:04:46;22.00;70.90
14585;DHT22;7379;51.506;11.876;2022-08-19T07:07:14;22.00;70.90
14585;DHT22;7379;51.506;11.876;2022-08-19T07:09:43;22.00;70.90
14585;DHT22;7379;51.506;11.876;2022-08-19T07:12:12;22.00;70.90
14585;DHT22;7379;51.506;11.876;2022-08-19T07:14:41;22.00;71.00
14585;DHT22;7379;51.506;11.876;2022-08-19T07:17:10;22.00;70.80
14585;DHT22;7379;51.506;11.876;2022-08-19T07:19:39;22.00;70.80
14585;DHT22;7379;51.506;11.876;2022-08-19T07:22:07;22.00;70.80
14585;DHT22;7379;51.506;11.876;2022-08-19T07:24:34;22.00;70.80
14585;DHT22;7379;51.506;11.876;2022-08-19T07:27:03;22.00;70.90
14585;DHT22;7379;51.506;11.876;2022-08-19T07:29:32;22.00;70.80
14585;DHT22;7379;51.506;11.876;2022-08-19T07:32:00;22.00;70.70
14585;DHT22;7379;51.506;11.876;2022-08-19T07:34:28;22.00;70.80
14585;DHT22;7379;51.506;11.876;2022-08-19T07:36:57;22.00;70.70
14585;DHT22;7379;51.506;11.876;2022-08-19T07:39:27;22.00;70.70
14585;DHT22;7379;51.506;11.876;2022-08-19T07:41:55;22.00;70.70
14585;DHT22;7379;51.506;11.876;2022-08-19T07:44:23;22.00;70.60
14585;DHT22;7379;51.506;11.876;2022-08-19T07:46:56;21.90;70.60
14585;DHT22;7379;51.506;11.876;2022-08-19T07:49:25;21.90;70.50
14585;DHT22;7379;51.506;11.876;2022-08-19T07:51:54;21.90;70.60
14585;DHT22;7379;51.506;11.876;2022-08-19T07:54:24;21.90;70.50
14585;DHT22;7379;51.506;11.876;2022-08-19T07:56:52;21.90;70.50
14585;DHT22;7379;51.506;11.876;2022-08-19T07:59:20;21.90;70.50
14585;DHT22;7379;51.506;11.876;2022-08-19T08:01:48;21.90;70.50
14585;DHT22;7379;51.506;11.876;2022-08-19T08:04:15;21.90;70.40
14585;DHT22;7379;51.506;11.876;2022-08-19T08:06:59;21.90;70.40
14585;DHT22;7379;51.506;11.876;2022-08-19T08:09:45;21.90;70.40
14585;DHT22;7379;51.506;11.876;2022-08-19T08:12:15;21.90;70.40
14585;DHT22;7379;51.506;11.876;2022-08-19T08:14:44;21.90;70.40
14585;DHT22;7379;51.506;11.876;2022-08-19T08:17:12;21.90;70.40
14585;DHT22;7379;51.506;11.876;2022-08-19T08:19:40;21.90;70.40
14585;DHT22;7379;51.506;11.876;2022-08-19T08:22:08;21.90;70.40
14585;DHT22;7379;51.506;11.876;2022-08-19T08:25:00;21.90;70.40
14585;DHT22;7379;51.506;11.876;2022-08-19T08:27:27;21.80;70.30
14585;DHT22;7379;51.506;11.876;2022-08-19T08:29:55;21.80;70.30
14585;DHT22;7379;51.506;11.876;2022-08-19T08:32:21;21.80;70.30
14585;DHT22;7379;51.506;11.876;2022-08-19T08:34:48;21.80;70.30
14585;DHT22;7379;51.506;11.876;2022-08-19T08:37:15;21.80;70.30
14585;DHT22;7379;51.506;11.876;2022-08-19T08:39:42;21.80;70.20
14585;DHT22;7379;51.506;11.876;2022-08-19T08:42:16;21.80;70.20
14585;DHT22;7379;51.506;11.876;2022-08-19T08:44:49;21.80;71.00
14585;DHT22;7379;51.506;11.876;2022-08-19T08:47:19;21.80;70.20
14585;DHT22;7379;51.506;11.876;2022-08-19T08:49:50;21.80;70.20
14585;DHT22;7379;51.506;11.876;2022-08-19T08:52:21;21.80;70.10
14585;DHT22;7379;51.506;11.876;2022-08-19T08:54:50;21.80;70.20
14585;DHT22;7379;51.506;11.876;2022-08-19T08:57:25;21.80;70.30
14585;DHT22;7379;51.506;11.876;2022-08-19T08:59:54;21.80;70.20
14585;DHT22;7379;51.506;11.876;2022-08-19T09:02:24;21.80;70.20
14585;DHT22;7379;51.506;11.876;2022-08-19T09:04:51;21.80;70.20
14585;DHT22;7379;51.506;11.876;2022-08-19T09:07:29;21.70;70.10
14585;DHT22;7379;51.506;11.876;2022-08-19T09:10:04;21.70;70.10
14585;DHT22;7379;51.506;11.876;2022-08-19T09:12:40;21.70;70.10
14585;DHT22;7379;51.506;11.876;2022-08-19T09:15:11;21.70;70.20
14585;DHT22;7379;51.506;11.876;2022-08-19T09:17:38;21.70;70.10
14585;DHT22;7379;51.506;11.876;2022-08-19T09:20:19;21.70;70.10
14585;DHT22;7379;51.506;11.876;2022-08-19T09:22:46;21.70;70.20
14585;DHT22;7379;51.506;11.876;2022-08-19T09:25:16;21.70;70.20
14585;DHT22;7379;51.506;11.876;2022-08-19T09:27:44;21.70;70.20
14585;DHT22;7379;51.506;11.876;2022-08-19T09:30:14;21.70;70.10
14585;DHT22;7379;51.506;11.876;2022-08-19T09:32:42;21.70;70.20
14585;DHT22;7379;51.506;11.876;2022-08-19T09:35:10;21.70;70.10
14585;DHT22;7379;51.506;11.876;2022-08-19T09:37:36;21.70;70.10
14585;DHT22;7379;51.506;11.876;2022-08-19T09:40:04;21.70;70.10
14585;DHT22;7379;51.506;11.876;2022-08-19T09:42:32;21.60;70.00
14585;DHT22;7379;51.506;11.876;2022-08-19T09:45:00;21.60;70.00
14585;DHT22;7379;51.506;11.876;2022-08-19T09:47:28;21.60;69.90
14585;DHT22;7379;51.506;11.876;2022-08-19T09:49:54;21.60;70.00
14585;DHT22;7379;51.506;11.876;2022-08-19T09:52:21;21.60;69.90
14585;DHT22;7379;51.506;11.876;2022-08-19T09:54:51;21.60;69.90
14585;DHT22;7379;51.506;11.876;2022-08-19T09:57:18;21.60;69.90
14585;DHT22;7379;51.506;11.876;2022-08-19T09:59:45;21.60;69.90
14585;DHT22;7379;51.506;11.876;2022-08-19T10:02:14;21.60;69.90
14585;DHT22;7379;51.506;11.876;2022-08-19T10:04:41;21.60;69.80
14585;DHT22;7379;51.506;11.876;2022-08-19T10:07:25;21.60;69.90
14585;DHT22;7379;51.506;11.876;2022-08-19T10:09:52;21.60;69.90
14585;DHT22;7379;51.506;11.876;2022-08-19T10:12:19;21.60;69.90
14585;DHT22;7379;51.506;11.876;2022-08-19T10:14:46;21.50;69.80
14585;DHT22;7379;51.506;11.876;2022-08-19T10:17:14;21.60;69.90
14585;DHT22;7379;51.506;11.876;2022-08-19T10:19:41;21.50;69.70
14585;DHT22;7379;51.506;11.876;2022-08-19T10:22:08;21.60;69.80
14585;DHT22;7379;51.506;11.876;2022-08-19T10:24:36;21.60;69.90
14585;DHT22;7379;51.506;11.876;2022-08-19T10:27:03;21.60;69.90
14585;DHT22;7379;51.506;11.876;2022-08-19T10:29:31;21.60;69.90
14585;DHT22;7379;51.506;11.876;2022-08-19T10:32:00;21.60;69.90
14585;DHT22;7379;51.506;11.876;2022-08-19T10:34:29;21.60;69.80
14585;DHT22;7379;51.506;11.876;2022-08-19T10:36:57;21.60;69.80
14585;DHT22;7379;51.506;11.876;2022-08-19T10:39:25;21.60;69.70
14585;DHT22;7379;51.506;11.876;2022-08-19T10:41:54;21.60;69.70
14585;DHT22;7379;51.506;11.876;2022-08-19T10:44:21;21.60;69.60
14585;DHT22;7379;51.506;11.876;2022-08-19T10:46:48;21.60;69.60
14585;DHT22;7379;51.506;11.876;2022-08-19T10:49:15;21.60;69.50
14585;DHT22;7379;51.506;11.876;2022-08-19T10:51:45;21.60;69.50
14585;DHT22;7379;51.506;11.876;2022-08-19T10:54:30;21.60;69.60
14585;DHT22;7379;51.506;11.876;2022-08-19T10:57:10;21.60;69.60
14585;DHT22;7379;51.506;11.876;2022-08-19T10:59:37;21.60;69.60
14585;DHT22;7379;51.506;11.876;2022-08-19T11:02:07;21.60;69.50
14585;DHT22;7379;51.506;11.876;2022-08-19T11:04:35;21.60;69.50
14585;DHT22;7379;51.506;11.876;2022-08-19T11:07:04;21.70;69.80
14585;DHT22;7379;51.506;11.876;2022-08-19T11:09:36;21.70;70.20
14585;DHT22;7379;51.506;11.876;2022-08-19T11:12:04;21.70;69.80
14585;DHT22;7379;51.506;11.876;2022-08-19T11:14:31;21.70;69.70
14585;DHT22;7379;51.506;11.876;2022-08-19T11:16:59;21.70;69.40
14585;DHT22;7379;51.506;11.876;2022-08-19T11:19:26;21.70;69.20
14585;DHT22;7379;51.506;11.876;2022-08-19T11:21:53;21.70;69.20
14585;DHT22;7379;51.506;11.876;2022-08-19T11:24:22;21.70;69.20
14585;DHT22;7379;51.506;11.876;2022-08-19T11:26:51;21.70;69.10
14585;DHT22;7379;51.506;11.876;2022-08-19T11:29:20;21.70;69.00
14585;DHT22;7379;51.506;11.876;2022-08-19T11:31:48;21.70;68.90
14585;DHT22;7379;51.506;11.876;2022-08-19T11:34:17;21.70;68.90
14585;DHT22;7379;51.506;11.876;2022-08-19T11:36:46;21.70;69.00
14585;DHT22;7379;51.506;11.876;2022-08-19T11:39:15;21.70;68.90
14585;DHT22;7379;51.506;11.876;2022-08-19T11:41:44;21.70;69.00
14585;DHT22;7379;51.506;11.876;2022-08-19T11:44:10;21.80;69.00
14585;DHT22;7379;51.506;11.876;2022-08-19T11:46:40;21.80;69.00
14585;DHT22;7379;51.506;11.876;2022-08-19T11:49:11;21.80;68.70
14585;DHT22;7379;51.506;11.876;2022-08-19T11:51:38;21.80;68.90
14585;DHT22;7379;51.506;11.876;2022-08-19T11:54:05;21.80;68.80
14585;DHT22;7379;51.506;11.876;2022-08-19T11:56:32;21.80;68.80
14585;DHT22;7379;51.506;11.876;2022-08-19T11:59:00;21.80;68.80
14585;DHT22;7379;51.506;11.876;2022-08-19T12:01:28;21.80;68.80
14585;DHT22;7379;51.506;11.876;2022-08-19T12:03:56;21.80;69.00
14585;DHT22;7379;51.506;11.876;2022-08-19T12:06:25;21.80;68.70
14585;DHT22;7379;51.506;11.876;2022-08-19T12:08:55;21.80;68.90
14585;DHT22;7379;51.506;11.876;2022-08-19T12:11:22;21.80;68.70
14585;DHT22;7379;51.506;11.876;2022-08-19T12:13:49;21.80;68.90
14585;DHT22;7379;51.506;11.876;2022-08-19T12:16:20;21.80;69.00
14585;DHT22;7379;51.506;11.876;2022-08-19T12:18:48;21.80;68.90
14585;DHT22;7379;51.506;11.876;2022-08-19T12:21:19;21.80;68.70
14585;DHT22;7379;51.506;11.876;2022-08-19T12:23:47;21.80;68.90
14585;DHT22;7379;51.506;11.876;2022-08-19T12:26:15;21.80;69.00
14585;DHT22;7379;51.506;11.876;2022-08-19T12:28:42;21.90;68.80
14585;DHT22;7379;51.506;11.876;2022-08-19T12:31:09;21.80;68.70
14585;DHT22;7379;51.506;11.876;2022-08-19T12:33:38;21.80;68.70
14585;DHT22;7379;51.506;11.876;2022-08-19T12:36:08;21.80;68.70
14585;DHT22;7379;51.506;11.876;2022-08-19T12:38:36;21.80;68.70
14585;DHT22;7379;51.506;11.876;2022-08-19T12:41:03;21.80;68.60
14585;DHT22;7379;51.506;11.876;2022-08-19T12:43:32;21.80;68.70
14585;DHT22;7379;51.506;11.876;2022-08-19T12:46:00;21.80;68.70
14585;DHT22;7379;51.506;11.876;2022-08-19T12:48:26;21.80;68.70
14585;DHT22;7379;51.506;11.876;2022-08-19T12:50:55;21.80;68.60
14585;DHT22;7379;51.506;11.876;2022-08-19T12:53:23;21.80;68.80
14585;DHT22;7379;51.506;11.876;2022-08-19T12:55:54;21.80;68.80
14585;DHT22;7379;51.506;11.876;2022-08-19T12:58:22;21.90;68.80
14585;DHT22;7379;51.506;11.876;2022-08-19T13:00:49;21.80;68.70
14585;DHT22;7379;51.506;11.876;2022-08-19T13:03:16;21.90;69.10
14585;DHT22;7379;51.506;11.876;2022-08-19T13:05:43;21.90;68.80
14585;DHT22;7379;51.506;11.876;2022-08-19T13:08:11;21.90;68.80
14585;DHT22;7379;51.506;11.876;2022-08-19T13:10:38;21.90;68.70
14585;DHT22;7379;51.506;11.876;2022-08-19T13:13:07;21.90;68.80
14585;DHT22;7379;51.506;11.876;2022-08-19T13:15:36;21.90;68.70
14585;DHT22;7379;51.506;11.876;2022-08-19T13:18:05;21.90;68.70
14585;DHT22;7379;51.506;11.876;2022-08-19T13:20:33;21.90;68.70
14585;DHT22;7379;51.506;11.876;2022-08-19T13:23:01;21.90;68.70
14585;DHT22;7379;51.506;11.876;2022-08-19T13:25:29;21.90;68.60
14585;DHT22;7379;51.506;11.876;2022-08-19T13:27:56;21.90;68.70
14585;DHT22;7379;51.506;11.876;2022-08-19T13:30:23;21.90;68.50
14585;DHT22;7379;51.506;11.876;2022-08-19T13:33:08;21.90;68.40
14585;DHT22;7379;51.506;11.876;2022-08-19T13:35:42;21.90;68.40
14585;DHT22;7379;51.506;11.876;2022-08-19T13:38:09;21.90;68.40
14585;DHT22;7379;51.506;11.876;2022-08-19T13:40:38;21.90;68.40
14585;DHT22;7379;51.506;11.876;2022-08-19T13:43:05;21.90;68.60
14585;DHT22;7379;51.506;11.876;2022-08-19T13:45:33;21.90;68.70
14585;DHT22;7379;51.506;11.876;2022-08-19T13:48:02;21.90;68.50
14585;DHT22;7379;51.506;11.876;2022-08-19T13:50:32;21.90;68.50
14585;DHT22;7379;51.506;11.876;2022-08-19T13:53:00;21.90;68.30
14585;DHT22;7379;51.506;11.876;2022-08-19T13:55:27;21.90;68.30
14585;DHT22;7379;51.506;11.876;2022-08-19T13:57:57;21.90;68.30
14585;DHT22;7379;51.506;11.876;2022-08-19T14:00:26;21.90;68.30
14585;DHT22;7379;51.506;11.876;2022-08-19T14:02:55;21.90;68.20
14585;DHT22;7379;51.506;11.876;2022-08-19T14:05:23;21.90;68.10
14585;DHT22;7379;51.506;11.876;2022-08-19T14:07:50;21.90;68.10
14585;DHT22;7379;51.506;11.876;2022-08-19T14:10:18;21.90;68.00
14585;DHT22;7379;51.506;11.876;2022-08-19T14:12:45;22.00;68.10
14585;DHT22;7379;51.506;11.876;2022-08-19T14:15:15;21.90;68.00
14585;DHT22;7379;51.506;11.876;2022-08-19T14:17:43;21.90;67.90
14585;DHT22;7379;51.506;11.876;2022-08-19T14:20:13;21.90;68.00
14585;DHT22;7379;51.506;11.876;2022-08-19T14:22:42;21.90;68.10
14585;DHT22;7379;51.506;11.876;2022-08-19T14:25:13;21.90;68.00
14585;DHT22;7379;51.506;11.876;2022-08-19T14:27:41;21.90;68.00
14585;DHT22;7379;51.506;11.876;2022-08-19T14:30:10;21.90;68.00
14585;DHT22;7379;51.506;11.876;2022-08-19T14:32:38;21.90;68.00
14585;DHT22;7379;51.506;11.876;2022-08-19T14:35:06;21.90;68.00
14585;DHT22;7379;51.506;11.876;2022-08-19T14:37:43;21.90;67.90
14585;DHT22;7379;51.506;11.876;2022-08-19T14:40:11;21.90;67.90
14585;DHT22;7379;51.506;11.876;2022-08-19T14:42:38;21.90;67.90
14585;DHT22;7379;51.506;11.876;2022-08-19T14:45:06;21.90;67.90
14585;DHT22;7379;51.506;11.876;2022-08-19T14:47:33;21.90;67.90
14585;DHT22;7379;51.506;11.876;2022-08-19T14:50:01;21.90;67.80
14585;DHT22;7379;51.506;11.876;2022-08-19T14:52:28;21.90;68.60
14585;DHT22;7379;51.506;11.876;2022-08-19T14:54:55;21.90;67.80
14585;DHT22;7379;51.506;11.876;2022-08-19T14:57:22;21.90;67.70
14585;DHT22;7379;51.506;11.876;2022-08-19T14:59:49;21.90;67.70
14585;DHT22;7379;51.506;11.876;2022-08-19T15:02:16;21.90;67.70
14585;DHT22;7379;51.506;11.876;2022-08-19T15:04:43;21.90;67.70
14585;DHT22;7379;51.506;11.876;2022-08-19T15:07:11;21.90;68.50
14585;DHT22;7379;51.506;11.876;2022-08-19T15:09:38;21.90;67.60
14585;DHT22;7379;51.506;11.876;2022-08-19T15:12:05;21.90;67.60
14585;DHT22;7379;51.506;11.876;2022-08-19T15:14:32;21.90;67.50
14585;DHT22;7379;51.506;11.876;2022-08-19T15:17:00;21.90;67.50
14585;DHT22;7379;51.506;11.876;2022-08-19T15:19:27;21.90;68.20
14585;DHT22;7379;51.506;11.876;2022-08-19T15:21:54;21.90;67.40
14585;DHT22;7379;51.506;11.876;2022-08-19T15:24:22;21.90;67.40
14585;DHT22;7379;51.506;11.876;2022-08-19T15:26:51;21.90;67.40
14585;DHT22;7379;51.506;11.876;2022-08-19T15:29:18;21.90;67.50
14585;DHT22;7379;51.506;11.876;2022-08-19T15:31:45;21.90;67.50
14585;DHT22;7379;51.506;11.876;2022-08-19T15:34:12;21.90;67.40
14585;DHT22;7379;51.506;11.876;2022-08-19T15:36:39;21.90;67.40
14585;DHT22;7379;51.506;11.876;2022-08-19T15:39:05;21.90;67.40